Greater Kankakee Airport
KIKK : now visible

Airfield :











YOU CAN JOIN US ON...

 
LOGIN :

Register | Disclaimer

   EN    FR    IT 

 









Legend :    VFR   Marginal VFR   IFR   Intensive IFR   Very Intensive IFR
Visi :
Ceiling :
>= 8 km
>= 3000ft
5 to 8 km
1000 to 3000 ft
1500m to 5 km
500 to 1000 ft
800 to 1500m
200 to 500 ft
< 800m
< 200 ft
Symbols :   Thunderstorms  Fog  Heavy snow  Heavy precipitations  Wind > 20 kt






- Airport Elevation : 630 ft


KIKK - Greater Kankakee

CURRENT METAR :
  • 202035Z AUTO 24007KT 10SM CLR 30/22 A2967 RMK AO2 T02960217 PWINO

EXPIRED METARs :
  • 202015Z AUTO 25007KT 10SM CLR 30/22 A2967 RMK AO2 T02950219 PWINO
  • 201955Z AUTO 00000KT 10SM CLR 30/22 A2967 RMK AO2 T02960218 PWINO
  • 201935Z AUTO 26004KT 10SM CLR 29/22 A2967 RMK AO2 T02920221 PWINO
  • 201915Z AUTO 24005KT 10SM CLR 30/22 A2967 RMK AO2 T02980220 PWINO
  • 201855Z AUTO 25003KT 10SM CLR 30/23 A2968 RMK AO2 T02950230 PWINO
  • 201835Z AUTO 00000KT 10SM CLR 29/23 A2968 RMK AO2 T02900226 PWINO
  • 201815Z AUTO 25005KT 10SM CLR 29/23 A2969 RMK AO2 T02890228 PWINO
  • 201755Z AUTO 22007KT 10SM SCT026 29/23 A2970 RMK AO2 T02860230 10287 20216 PWINO

TAF N/A
KZAU FIR / North America



MET'MAP, your aeronautical weather chart ! - Copyright ORBIFLY December 2007 - Disclaimer

ORBIFLY MET'MAP TEAM :

Programming & Development : Alexandra Zaïnal
Concept & original design : Baudouin d'Aumeries
Assistance for programming : Marc-Olivier Méhu
Technical & hardware support : Manuel Goepfert

Contact : metmap@orbifly.com




SOURCES & CREDITS :

   NOAA       Earth
Advisory